THY7JR LTFM-EHAM
Flight info
| Callsign | THY7JR |
|---|---|
| Flight time | N/A |
| Altitude | 38000 |
| Route | TUDBU DCT ETUBA DCT ELDET DCT BACAM DCT SODGO DCT INVED DCT DITIS DCT VARIK DCT KATCE DCT NORKU |
| Aircraft | B77W/H-SDE1E2E3FGHIJ2J3J4J5M1RWXY/LB1D1 |
Departure
| Time | 2026-05-07 07:56 |
|---|---|
| Airport | İstanbul Airport (LTFM) |
Arrival
| Time | N/A |
|---|---|
| Airport | Amsterdam Airport Schiphol (EHAM) |
| Time | Latitude | Longitude | Altitude | Speed | Heading |
|---|---|---|---|---|---|
| 2026-05-07 07:09 | 41.26701 | 28.74714 | 340 ft | 0 kts | 90° |
| 2026-05-07 07:45 | 41.26701 | 28.74699 | 340 ft | 2 kts | 91° |
| 2026-05-07 07:45 | 41.26701 | 28.74679 | 340 ft | 2 kts | 90° |
| 2026-05-07 07:45 | 41.26701 | 28.74659 | 340 ft | 2 kts | 83° |
| 2026-05-07 07:46 | 41.26696 | 28.74640 | 340 ft | 2 kts | 58° |
| 2026-05-07 07:46 | 41.26687 | 28.74626 | 340 ft | 2 kts | 38° |
| 2026-05-07 07:46 | 41.26674 | 28.74616 | 340 ft | 2 kts | 18° |
| 2026-05-07 07:46 | 41.26660 | 28.74612 | 340 ft | 2 kts | 359° |
| 2026-05-07 07:47 | 41.26655 | 28.74612 | 340 ft | 0 kts | 358° |
| 2026-05-07 07:49 | 41.26656 | 28.74612 | 339 ft | 0 kts | 358° |
| 2026-05-07 07:49 | 41.26669 | 28.74612 | 339 ft | 2 kts | 358° |
| 2026-05-07 07:49 | 41.26698 | 28.74610 | 339 ft | 5 kts | 358° |
| 2026-05-07 07:49 | 41.26744 | 28.74609 | 339 ft | 7 kts | 358° |
| 2026-05-07 07:50 | 41.26796 | 28.74607 | 339 ft | 7 kts | 359° |
| 2026-05-07 07:50 | 41.26851 | 28.74606 | 339 ft | 7 kts | 360° |
| 2026-05-07 07:50 | 41.26907 | 28.74605 | 339 ft | 8 kts | 359° |
| 2026-05-07 07:50 | 41.26954 | 28.74627 | 339 ft | 7 kts | 59° |
| 2026-05-07 07:51 | 41.26963 | 28.74698 | 339 ft | 8 kts | 88° |
| 2026-05-07 07:51 | 41.26963 | 28.74792 | 339 ft | 11 kts | 90° |
| 2026-05-07 07:51 | 41.26965 | 28.74909 | 339 ft | 13 kts | 89° |
| 2026-05-07 07:51 | 41.26965 | 28.75041 | 339 ft | 14 kts | 90° |
| 2026-05-07 07:52 | 41.26966 | 28.75173 | 339 ft | 14 kts | 90° |
| 2026-05-07 07:52 | 41.26967 | 28.75296 | 339 ft | 8 kts | 89° |
| 2026-05-07 07:52 | 41.26951 | 28.75356 | 339 ft | 7 kts | 149° |
| 2026-05-07 07:52 | 41.26890 | 28.75373 | 339 ft | 10 kts | 179° |
| 2026-05-07 07:53 | 41.26808 | 28.75374 | 339 ft | 13 kts | 178° |
| 2026-05-07 07:53 | 41.26710 | 28.75378 | 340 ft | 15 kts | 179° |
| 2026-05-07 07:53 | 41.26598 | 28.75381 | 339 ft | 17 kts | 179° |
| 2026-05-07 07:53 | 41.26482 | 28.75382 | 340 ft | 16 kts | 180° |
| 2026-05-07 07:54 | 41.26378 | 28.75381 | 340 ft | 11 kts | 180° |
| 2026-05-07 07:54 | 41.26323 | 28.75431 | 340 ft | 10 kts | 103° |
| 2026-05-07 07:54 | 41.26321 | 28.75530 | 339 ft | 10 kts | 89° |
| 2026-05-07 07:54 | 41.26323 | 28.75627 | 339 ft | 9 kts | 86° |
| 2026-05-07 07:55 | 41.26364 | 28.75668 | 339 ft | 8 kts | 5° |
| 2026-05-07 07:55 | 41.26445 | 28.75667 | 339 ft | 22 kts | 360° |
| 2026-05-07 07:55 | 41.26809 | 28.75659 | 340 ft | 89 kts | 359° |
| 2026-05-07 07:55 | 41.27679 | 28.75643 | 341 ft | 158 kts | 358° |
| 2026-05-07 07:56 | 41.28847 | 28.75628 | 828 ft | 173 kts | 358° |
| 2026-05-07 07:56 | 41.30104 | 28.75701 | 1466 ft | 191 kts | 13° |
| 2026-05-07 07:56 | 41.31305 | 28.76448 | 2063 ft | 201 kts | 37° |
| 2026-05-07 07:56 | 41.32411 | 28.77691 | 2566 ft | 217 kts | 40° |
| 2026-05-07 07:57 | 41.33629 | 28.78975 | 3168 ft | 229 kts | 33° |
| 2026-05-07 07:57 | 41.35009 | 28.80091 | 3916 ft | 234 kts | 27° |
| 2026-05-07 07:57 | 41.36452 | 28.81157 | 4515 ft | 247 kts | 27° |
| 2026-05-07 07:57 | 41.38010 | 28.82153 | 5208 ft | 253 kts | 13° |
| 2026-05-07 07:58 | 41.39762 | 28.82351 | 5932 ft | 257 kts | 355° |
| 2026-05-07 07:58 | 41.41561 | 28.82166 | 6698 ft | 263 kts | 353° |
| 2026-05-07 07:58 | 41.43376 | 28.81934 | 7579 ft | 264 kts | 353° |
| 2026-05-07 07:58 | 41.45205 | 28.81704 | 8422 ft | 267 kts | 354° |
| 2026-05-07 07:59 | 41.47054 | 28.81475 | 9250 ft | 270 kts | 354° |
| 2026-05-07 07:59 | 41.48896 | 28.81248 | 10046 ft | 272 kts | 354° |
| 2026-05-07 07:59 | 41.50806 | 28.81013 | 10632 ft | 284 kts | 354° |
| 2026-05-07 07:59 | 41.52835 | 28.80763 | 11099 ft | 301 kts | 354° |
| 2026-05-07 08:00 | 41.54950 | 28.80415 | 11574 ft | 317 kts | 349° |
| 2026-05-07 08:00 | 41.57118 | 28.79593 | 12080 ft | 333 kts | 340° |
| 2026-05-07 08:00 | 41.59263 | 28.78194 | 12645 ft | 350 kts | 330° |
| 2026-05-07 08:00 | 41.61250 | 28.76217 | 13253 ft | 367 kts | 319° |
| 2026-05-07 08:01 | 41.62970 | 28.73650 | 14090 ft | 378 kts | 308° |
| 2026-05-07 08:01 | 41.64296 | 28.70591 | 15118 ft | 386 kts | 296° |
| 2026-05-07 08:01 | 41.65259 | 28.67301 | 16219 ft | 390 kts | 293° |
| 2026-05-07 08:01 | 41.66203 | 28.63874 | 17335 ft | 394 kts | 291° |
| 2026-05-07 08:02 | 41.66861 | 28.60303 | 18305 ft | 403 kts | 282° |
| 2026-05-07 08:02 | 41.67085 | 28.56598 | 19273 ft | 410 kts | 277° |
| 2026-05-07 08:02 | 41.67446 | 28.52836 | 20278 ft | 410 kts | 286° |
| 2026-05-07 08:02 | 41.68282 | 28.49199 | 21254 ft | 409 kts | 295° |
| 2026-05-07 08:03 | 41.69514 | 28.45812 | 22213 ft | 410 kts | 301° |
| 2026-05-07 08:03 | 41.70859 | 28.42464 | 23170 ft | 413 kts | 301° |
| 2026-05-07 08:03 | 41.72218 | 28.39089 | 24069 ft | 417 kts | 301° |
| 2026-05-07 08:03 | 41.73589 | 28.35684 | 24861 ft | 422 kts | 301° |
| 2026-05-07 08:04 | 41.74975 | 28.32235 | 25683 ft | 427 kts | 300° |
| 2026-05-07 08:04 | 41.76393 | 28.28702 | 26537 ft | 431 kts | 300° |
| 2026-05-07 08:04 | 41.77802 | 28.25187 | 27371 ft | 434 kts | 300° |
| 2026-05-07 08:04 | 41.79227 | 28.21628 | 28176 ft | 438 kts | 300° |
| 2026-05-07 08:05 | 41.80664 | 28.18034 | 28965 ft | 442 kts | 300° |
| 2026-05-07 08:05 | 41.82120 | 28.14387 | 29749 ft | 445 kts | 300° |
| 2026-05-07 08:05 | 41.83563 | 28.10769 | 30727 ft | 444 kts | 300° |
| 2026-05-07 08:05 | 41.85011 | 28.07131 | 31786 ft | 440 kts | 300° |
| 2026-05-07 08:06 | 41.86442 | 28.03532 | 32718 ft | 437 kts | 300° |
| 2026-05-07 08:06 | 41.87875 | 27.99926 | 33500 ft | 437 kts | 300° |
| 2026-05-07 08:06 | 41.89301 | 27.96331 | 34172 ft | 437 kts | 300° |
| 2026-05-07 08:06 | 41.90709 | 27.92779 | 34734 ft | 439 kts | 300° |
| 2026-05-07 08:07 | 41.92151 | 27.89134 | 35332 ft | 438 kts | 300° |
| 2026-05-07 08:07 | 41.93565 | 27.85556 | 35938 ft | 435 kts | 300° |
| 2026-05-07 08:07 | 41.94960 | 27.82023 | 36518 ft | 432 kts | 300° |
| 2026-05-07 08:07 | 41.96479 | 27.78558 | 37196 ft | 428 kts | 306° |
| 2026-05-07 08:08 | 41.98301 | 27.75439 | 37747 ft | 427 kts | 313° |
| 2026-05-07 08:08 | 42.00350 | 27.72584 | 38112 ft | 428 kts | 315° |
| 2026-05-07 08:08 | 42.02440 | 27.69745 | 38092 ft | 429 kts | 315° |
| 2026-05-07 08:09 | 42.06614 | 27.64058 | 38094 ft | 425 kts | 315° |
| 2026-05-07 08:09 | 42.10772 | 27.58368 | 38100 ft | 427 kts | 315° |
| 2026-05-07 08:10 | 42.14883 | 27.52722 | 38101 ft | 426 kts | 315° |
| 2026-05-07 08:10 | 42.19021 | 27.47025 | 38103 ft | 426 kts | 315° |
| 2026-05-07 08:11 | 42.23152 | 27.41323 | 38100 ft | 427 kts | 315° |
| 2026-05-07 08:11 | 42.27287 | 27.35605 | 38102 ft | 426 kts | 315° |
| 2026-05-07 08:12 | 42.31410 | 27.29890 | 38108 ft | 427 kts | 314° |
| 2026-05-07 08:12 | 42.35553 | 27.24136 | 38105 ft | 427 kts | 314° |
| 2026-05-07 08:13 | 42.39685 | 27.18385 | 38102 ft | 427 kts | 314° |
| 2026-05-07 08:13 | 42.43806 | 27.12638 | 38100 ft | 428 kts | 314° |
| 2026-05-07 08:14 | 42.47943 | 27.06857 | 38090 ft | 427 kts | 314° |
| 2026-05-07 08:14 | 42.52063 | 27.01087 | 38091 ft | 427 kts | 314° |
| 2026-05-07 08:15 | 42.56188 | 26.95300 | 38083 ft | 429 kts | 314° |
| 2026-05-07 08:15 | 42.60325 | 26.89485 | 38080 ft | 428 kts | 314° |
| 2026-05-07 08:16 | 42.64418 | 26.83719 | 38082 ft | 428 kts | 314° |
| 2026-05-07 08:16 | 42.68543 | 26.77897 | 38080 ft | 429 kts | 314° |
| 2026-05-07 08:17 | 42.72673 | 26.72054 | 38083 ft | 429 kts | 314° |
| 2026-05-07 08:17 | 42.76813 | 26.66187 | 38078 ft | 431 kts | 314° |
| 2026-05-07 08:18 | 42.80926 | 26.60321 | 38071 ft | 430 kts | 311° |
| 2026-05-07 08:18 | 42.84544 | 26.53899 | 38081 ft | 430 kts | 307° |
| 2026-05-07 08:19 | 42.88086 | 26.47362 | 38087 ft | 429 kts | 307° |
| 2026-05-07 08:19 | 42.91629 | 26.40809 | 38085 ft | 431 kts | 307° |
| 2026-05-07 08:20 | 42.95178 | 26.34230 | 38081 ft | 431 kts | 306° |
| 2026-05-07 08:20 | 42.98723 | 26.27644 | 38085 ft | 431 kts | 306° |
| 2026-05-07 08:21 | 43.02275 | 26.21030 | 38092 ft | 431 kts | 306° |
| 2026-05-07 08:21 | 43.05813 | 26.14427 | 38075 ft | 432 kts | 306° |
| 2026-05-07 08:22 | 43.09320 | 26.07868 | 38067 ft | 430 kts | 306° |
| 2026-05-07 08:22 | 43.12853 | 26.01247 | 38063 ft | 432 kts | 306° |
| 2026-05-07 08:23 | 43.16387 | 25.94608 | 38059 ft | 431 kts | 306° |
| 2026-05-07 08:23 | 43.19893 | 25.88006 | 38059 ft | 431 kts | 306° |
| 2026-05-07 08:24 | 43.23405 | 25.81379 | 38058 ft | 432 kts | 305° |
| 2026-05-07 08:24 | 43.26930 | 25.74711 | 38054 ft | 431 kts | 305° |
| 2026-05-07 08:25 | 43.30436 | 25.68065 | 38058 ft | 432 kts | 306° |
| 2026-05-07 08:25 | 43.33952 | 25.61385 | 38057 ft | 433 kts | 306° |
| 2026-05-07 08:26 | 43.39231 | 25.51328 | 38055 ft | 433 kts | 305° |
| 2026-05-07 08:26 | 43.42728 | 25.44646 | 38050 ft | 434 kts | 305° |
| 2026-05-07 08:27 | 43.46230 | 25.37940 | 38047 ft | 433 kts | 305° |
| 2026-05-07 08:27 | 43.49735 | 25.31211 | 38055 ft | 433 kts | 304° |
| 2026-05-07 08:28 | 43.53229 | 25.24490 | 38050 ft | 434 kts | 304° |
| 2026-05-07 08:28 | 43.56723 | 25.17752 | 38053 ft | 433 kts | 304° |
| 2026-05-07 08:29 | 43.60233 | 25.10970 | 38052 ft | 434 kts | 304° |
| 2026-05-07 08:29 | 43.63707 | 25.04239 | 38050 ft | 435 kts | 304° |
| 2026-05-07 08:30 | 43.67212 | 24.97435 | 38050 ft | 436 kts | 304° |
| 2026-05-07 08:30 | 43.70716 | 24.90615 | 38049 ft | 436 kts | 304° |
| 2026-05-07 08:31 | 43.74202 | 24.83815 | 38050 ft | 436 kts | 304° |
| 2026-05-07 08:31 | 43.77685 | 24.77006 | 38050 ft | 435 kts | 304° |
| 2026-05-07 08:32 | 43.81170 | 24.70178 | 38048 ft | 435 kts | 304° |
| 2026-05-07 08:32 | 43.84643 | 24.63354 | 38050 ft | 437 kts | 304° |
| 2026-05-07 08:33 | 43.88134 | 24.56481 | 38052 ft | 436 kts | 304° |
| 2026-05-07 08:33 | 43.91594 | 24.49654 | 38048 ft | 436 kts | 304° |
| 2026-05-07 08:34 | 43.95087 | 24.42742 | 38043 ft | 436 kts | 304° |
| 2026-05-07 08:34 | 43.98543 | 24.35890 | 38047 ft | 438 kts | 304° |
| 2026-05-07 08:35 | 44.02011 | 24.28997 | 38055 ft | 436 kts | 303° |
| 2026-05-07 08:35 | 44.05489 | 24.22069 | 38056 ft | 437 kts | 303° |
| 2026-05-07 08:36 | 44.08941 | 24.15175 | 38059 ft | 438 kts | 303° |
| 2026-05-07 08:36 | 44.12415 | 24.08220 | 38058 ft | 439 kts | 303° |
| 2026-05-07 08:37 | 44.15890 | 24.01249 | 38054 ft | 439 kts | 303° |
| 2026-05-07 08:37 | 44.19359 | 23.94272 | 38055 ft | 439 kts | 303° |
| 2026-05-07 08:38 | 44.22824 | 23.87285 | 38053 ft | 439 kts | 302° |
| 2026-05-07 08:38 | 44.26261 | 23.80339 | 38058 ft | 440 kts | 302° |
| 2026-05-07 08:39 | 44.29894 | 23.73514 | 38064 ft | 440 kts | 309° |
| 2026-05-07 08:39 | 44.34025 | 23.67178 | 38059 ft | 443 kts | 310° |
| 2026-05-07 08:40 | 44.38158 | 23.60832 | 38058 ft | 442 kts | 310° |
| 2026-05-07 08:40 | 44.42255 | 23.54510 | 38056 ft | 443 kts | 310° |